Terminal Aerodrome Forecast
Issued by NWS

Home | Current Version | Previous Version | Text Only | Print | Product List | Glossary Off
Versions: 1 2 3 4 5 6 7 8 9 10 11 12 13 14 15 16

000
FTUS43 KBIS 231700
TAFJMS
TAF
KJMS 231720Z 2318/2418 14009KT P6SM FEW210
     FM232300 12012KT P6SM BKN120
     FM240700 10011KT P6SM VCSH BKN090
     FM241300 09010KT P6SM BKN050=

USA.gov is the U.S. government's official web portal to all federal, state and local government web resources and services.